sensor_id;sensor_type;location;lat;lon;timestamp;temperature;humidity
17632;DHT22;8934;51.194;17.150;2022-07-23T00:02:13;17.00;99.90
17632;DHT22;8934;51.194;17.150;2022-07-23T00:05:01;17.00;99.90
17632;DHT22;8934;51.194;17.150;2022-07-23T00:07:49;16.90;99.90
17632;DHT22;8934;51.194;17.150;2022-07-23T00:10:38;16.90;99.90
17632;DHT22;8934;51.194;17.150;2022-07-23T00:13:26;16.90;99.90
17632;DHT22;8934;51.194;17.150;2022-07-23T00:16:14;16.80;99.90
17632;DHT22;8934;51.194;17.150;2022-07-23T00:19:02;16.80;99.90
17632;DHT22;8934;51.194;17.150;2022-07-23T00:21:50;16.80;99.90
17632;DHT22;8934;51.194;17.150;2022-07-23T00:24:38;16.70;99.90
17632;DHT22;8934;51.194;17.150;2022-07-23T00:27:27;16.70;99.90
17632;DHT22;8934;51.194;17.150;2022-07-23T00:30:15;16.70;99.90
17632;DHT22;8934;51.194;17.150;2022-07-23T00:33:04;16.60;99.90
17632;DHT22;8934;51.194;17.150;2022-07-23T00:35:52;16.60;99.90
17632;DHT22;8934;51.194;17.150;2022-07-23T00:38:40;16.60;99.90
17632;DHT22;8934;51.194;17.150;2022-07-23T00:41:28;16.50;99.90
17632;DHT22;8934;51.194;17.150;2022-07-23T00:44:19;16.50;99.90
17632;DHT22;8934;51.194;17.150;2022-07-23T00:47:07;16.50;99.90
17632;DHT22;8934;51.194;17.150;2022-07-23T00:49:55;16.50;99.90
17632;DHT22;8934;51.194;17.150;2022-07-23T00:52:43;16.60;99.90
17632;DHT22;8934;51.194;17.150;2022-07-23T00:55:32;16.60;99.90
17632;DHT22;8934;51.194;17.150;2022-07-23T00:58:20;16.60;99.90
17632;DHT22;8934;51.194;17.150;2022-07-23T01:01:11;16.50;99.90
17632;DHT22;8934;51.194;17.150;2022-07-23T01:03:59;16.40;99.90
17632;DHT22;8934;51.194;17.150;2022-07-23T01:06:47;16.40;99.90
17632;DHT22;8934;51.194;17.150;2022-07-23T01:09:35;16.30;99.90
17632;DHT22;8934;51.194;17.150;2022-07-23T01:12:23;16.30;99.90
17632;DHT22;8934;51.194;17.150;2022-07-23T01:15:12;16.20;99.90
17632;DHT22;8934;51.194;17.150;2022-07-23T01:18:02;16.20;99.90
17632;DHT22;8934;51.194;17.150;2022-07-23T01:20:50;16.10;99.90
17632;DHT22;8934;51.194;17.150;2022-07-23T01:23:40;16.10;99.90
17632;DHT22;8934;51.194;17.150;2022-07-23T01:26:28;16.10;99.90
17632;DHT22;8934;51.194;17.150;2022-07-23T01:29:16;16.00;99.90
17632;DHT22;8934;51.194;17.150;2022-07-23T01:32:06;16.00;99.90
17632;DHT22;8934;51.194;17.150;2022-07-23T01:34:54;16.00;99.90
17632;DHT22;8934;51.194;17.150;2022-07-23T01:37:42;16.00;99.90
17632;DHT22;8934;51.194;17.150;2022-07-23T01:40:32;16.00;99.90
17632;DHT22;8934;51.194;17.150;2022-07-23T01:43:20;15.90;99.90
17632;DHT22;8934;51.194;17.150;2022-07-23T01:46:10;15.90;99.90
17632;DHT22;8934;51.194;17.150;2022-07-23T01:49:02;15.90;99.90
17632;DHT22;8934;51.194;17.150;2022-07-23T01:52:23;15.80;99.90
17632;DHT22;8934;51.194;17.150;2022-07-23T01:55:14;15.80;99.90
17632;DHT22;8934;51.194;17.150;2022-07-23T01:58:08;15.80;99.90
17632;DHT22;8934;51.194;17.150;2022-07-23T02:00:56;15.80;99.90
17632;DHT22;8934;51.194;17.150;2022-07-23T02:03:44;15.70;99.90
17632;DHT22;8934;51.194;17.150;2022-07-23T02:06:32;15.70;99.90
17632;DHT22;8934;51.194;17.150;2022-07-23T02:09:20;15.70;99.90
17632;DHT22;8934;51.194;17.150;2022-07-23T02:12:08;15.70;99.90
17632;DHT22;8934;51.194;17.150;2022-07-23T02:14:58;15.70;99.90
17632;DHT22;8934;51.194;17.150;2022-07-23T02:17:46;15.60;99.90
17632;DHT22;8934;51.194;17.150;2022-07-23T02:20:33;15.60;99.90
17632;DHT22;8934;51.194;17.150;2022-07-23T02:23:26;15.60;99.90
17632;DHT22;8934;51.194;17.150;2022-07-23T02:26:14;15.60;99.90
17632;DHT22;8934;51.194;17.150;2022-07-23T02:29:09;15.60;99.90
17632;DHT22;8934;51.194;17.150;2022-07-23T02:31:58;15.60;99.90
17632;DHT22;8934;51.194;17.150;2022-07-23T02:34:46;15.60;99.90
17632;DHT22;8934;51.194;17.150;2022-07-23T02:37:35;15.50;99.90
17632;DHT22;8934;51.194;17.150;2022-07-23T02:40:22;15.50;99.90
17632;DHT22;8934;51.194;17.150;2022-07-23T02:43:11;15.60;99.90
17632;DHT22;8934;51.194;17.150;2022-07-23T02:45:58;15.60;99.90
17632;DHT22;8934;51.194;17.150;2022-07-23T02:48:49;15.60;99.90
17632;DHT22;8934;51.194;17.150;2022-07-23T02:51:37;15.60;99.90
17632;DHT22;8934;51.194;17.150;2022-07-23T02:54:26;15.60;99.90
17632;DHT22;8934;51.194;17.150;2022-07-23T02:57:14;15.60;99.90
17632;DHT22;8934;51.194;17.150;2022-07-23T03:00:02;15.60;99.90
17632;DHT22;8934;51.194;17.150;2022-07-23T03:02:51;15.60;99.90
17632;DHT22;8934;51.194;17.150;2022-07-23T03:05:40;15.60;99.90
17632;DHT22;8934;51.194;17.150;2022-07-23T03:08:28;15.60;99.90
17632;DHT22;8934;51.194;17.150;2022-07-23T03:11:15;15.60;99.90
17632;DHT22;8934;51.194;17.150;2022-07-23T03:14:04;15.60;99.90
17632;DHT22;8934;51.194;17.150;2022-07-23T03:16:55;15.60;99.90
17632;DHT22;8934;51.194;17.150;2022-07-23T03:19:43;15.60;99.90
17632;DHT22;8934;51.194;17.150;2022-07-23T03:22:32;15.60;99.90
17632;DHT22;8934;51.194;17.150;2022-07-23T03:25:22;15.70;99.90
17632;DHT22;8934;51.194;17.150;2022-07-23T03:28:10;15.70;99.90
17632;DHT22;8934;51.194;17.150;2022-07-23T03:30:59;15.70;99.90
17632;DHT22;8934;51.194;17.150;2022-07-23T03:33:46;15.80;99.90
17632;DHT22;8934;51.194;17.150;2022-07-23T03:36:35;15.80;99.90
17632;DHT22;8934;51.194;17.150;2022-07-23T03:39:26;15.90;99.90
17632;DHT22;8934;51.194;17.150;2022-07-23T03:42:14;16.00;99.90
17632;DHT22;8934;51.194;17.150;2022-07-23T03:45:05;16.00;99.90
17632;DHT22;8934;51.194;17.150;2022-07-23T03:47:53;16.10;99.90
17632;DHT22;8934;51.194;17.150;2022-07-23T03:50:41;16.20;99.90
17632;DHT22;8934;51.194;17.150;2022-07-23T03:53:29;16.30;99.90
17632;DHT22;8934;51.194;17.150;2022-07-23T03:56:19;16.40;99.90
17632;DHT22;8934;51.194;17.150;2022-07-23T03:59:07;16.50;99.90
17632;DHT22;8934;51.194;17.150;2022-07-23T04:01:54;16.60;99.90
17632;DHT22;8934;51.194;17.150;2022-07-23T04:04:43;16.70;99.90
17632;DHT22;8934;51.194;17.150;2022-07-23T04:07:34;16.90;99.90
17632;DHT22;8934;51.194;17.150;2022-07-23T04:10:23;17.10;99.90
17632;DHT22;8934;51.194;17.150;2022-07-23T04:13:12;17.20;99.90
17632;DHT22;8934;51.194;17.150;2022-07-23T04:16:00;17.40;99.90
17632;DHT22;8934;51.194;17.150;2022-07-23T04:18:47;17.50;99.90
17632;DHT22;8934;51.194;17.150;2022-07-23T04:21:39;17.60;99.90
17632;DHT22;8934;51.194;17.150;2022-07-23T04:24:27;17.80;99.90
17632;DHT22;8934;51.194;17.150;2022-07-23T04:27:14;17.90;99.90
17632;DHT22;8934;51.194;17.150;2022-07-23T04:30:05;18.00;99.90
17632;DHT22;8934;51.194;17.150;2022-07-23T04:32:56;18.10;99.90
17632;DHT22;8934;51.194;17.150;2022-07-23T04:35:47;18.30;99.90
17632;DHT22;8934;51.194;17.150;2022-07-23T04:38:38;18.40;99.90
17632;DHT22;8934;51.194;17.150;2022-07-23T04:41:27;18.60;99.90
17632;DHT22;8934;51.194;17.150;2022-07-23T04:44:15;18.70;99.90
17632;DHT22;8934;51.194;17.150;2022-07-23T04:47:04;18.90;99.90
17632;DHT22;8934;51.194;17.150;2022-07-23T04:49:52;19.00;99.90
17632;DHT22;8934;51.194;17.150;2022-07-23T04:52:40;19.20;99.90
17632;DHT22;8934;51.194;17.150;2022-07-23T04:55:28;19.40;99.90
17632;DHT22;8934;51.194;17.150;2022-07-23T04:58:17;19.70;99.90
17632;DHT22;8934;51.194;17.150;2022-07-23T05:01:05;19.90;99.90
17632;DHT22;8934;51.194;17.150;2022-07-23T05:03:56;20.10;99.90
17632;DHT22;8934;51.194;17.150;2022-07-23T05:06:48;20.30;99.90
17632;DHT22;8934;51.194;17.150;2022-07-23T05:09:36;20.50;99.90
17632;DHT22;8934;51.194;17.150;2022-07-23T05:12:24;20.70;99.90
17632;DHT22;8934;51.194;17.150;2022-07-23T05:15:12;20.90;99.90
17632;DHT22;8934;51.194;17.150;2022-07-23T05:18:00;21.00;99.90
17632;DHT22;8934;51.194;17.150;2022-07-23T05:20:49;21.10;99.90
17632;DHT22;8934;51.194;17.150;2022-07-23T05:23:39;21.30;99.90
17632;DHT22;8934;51.194;17.150;2022-07-23T05:26:27;21.40;99.90
17632;DHT22;8934;51.194;17.150;2022-07-23T05:29:16;21.50;99.90
17632;DHT22;8934;51.194;17.150;2022-07-23T05:32:05;21.60;99.90
17632;DHT22;8934;51.194;17.150;2022-07-23T05:34:55;21.70;99.90
17632;DHT22;8934;51.194;17.150;2022-07-23T05:37:44;21.80;99.90
17632;DHT22;8934;51.194;17.150;2022-07-23T05:40:32;22.10;99.90
17632;DHT22;8934;51.194;17.150;2022-07-23T05:43:20;22.20;99.90
17632;DHT22;8934;51.194;17.150;2022-07-23T05:46:08;22.30;99.90
17632;DHT22;8934;51.194;17.150;2022-07-23T05:48:59;22.50;99.90
17632;DHT22;8934;51.194;17.150;2022-07-23T05:52:07;22.60;99.90
17632;DHT22;8934;51.194;17.150;2022-07-23T05:55:19;22.70;99.90
17632;DHT22;8934;51.194;17.150;2022-07-23T05:58:07;22.80;99.90
17632;DHT22;8934;51.194;17.150;2022-07-23T06:00:54;22.90;99.90
17632;DHT22;8934;51.194;17.150;2022-07-23T06:03:42;23.00;99.90
17632;DHT22;8934;51.194;17.150;2022-07-23T06:06:31;23.10;99.90
17632;DHT22;8934;51.194;17.150;2022-07-23T06:09:19;23.20;99.90
17632;DHT22;8934;51.194;17.150;2022-07-23T06:12:09;23.30;99.90
17632;DHT22;8934;51.194;17.150;2022-07-23T06:14:57;23.40;99.90
17632;DHT22;8934;51.194;17.150;2022-07-23T06:17:45;23.50;99.90
17632;DHT22;8934;51.194;17.150;2022-07-23T06:20:33;23.60;99.90
17632;DHT22;8934;51.194;17.150;2022-07-23T06:23:21;23.70;99.90
17632;DHT22;8934;51.194;17.150;2022-07-23T06:26:08;23.80;99.90
17632;DHT22;8934;51.194;17.150;2022-07-23T06:28:58;23.80;99.90
17632;DHT22;8934;51.194;17.150;2022-07-23T06:31:47;23.80;99.90
17632;DHT22;8934;51.194;17.150;2022-07-23T06:34:35;24.00;99.90
17632;DHT22;8934;51.194;17.150;2022-07-23T06:37:23;24.10;99.90
17632;DHT22;8934;51.194;17.150;2022-07-23T06:40:11;24.20;99.90
17632;DHT22;8934;51.194;17.150;2022-07-23T06:42:59;24.40;99.90
17632;DHT22;8934;51.194;17.150;2022-07-23T06:45:49;24.50;99.90
17632;DHT22;8934;51.194;17.150;2022-07-23T06:48:37;24.80;99.90
17632;DHT22;8934;51.194;17.150;2022-07-23T06:51:25;25.00;99.90
17632;DHT22;8934;51.194;17.150;2022-07-23T06:54:13;25.20;99.90
17632;DHT22;8934;51.194;17.150;2022-07-23T06:57:01;25.40;99.90
17632;DHT22;8934;51.194;17.150;2022-07-23T06:59:49;25.60;99.90
17632;DHT22;8934;51.194;17.150;2022-07-23T07:02:43;25.60;99.90
17632;DHT22;8934;51.194;17.150;2022-07-23T07:05:30;25.70;99.90
17632;DHT22;8934;51.194;17.150;2022-07-23T07:08:18;25.90;99.90
17632;DHT22;8934;51.194;17.150;2022-07-23T07:11:06;26.00;99.90
17632;DHT22;8934;51.194;17.150;2022-07-23T07:13:55;26.10;99.90
17632;DHT22;8934;51.194;17.150;2022-07-23T07:16:43;26.20;99.90
17632;DHT22;8934;51.194;17.150;2022-07-23T07:19:32;26.30;99.90
17632;DHT22;8934;51.194;17.150;2022-07-23T07:22:19;26.40;99.90
17632;DHT22;8934;51.194;17.150;2022-07-23T07:25:07;26.60;99.90
17632;DHT22;8934;51.194;17.150;2022-07-23T07:27:55;26.80;99.90
17632;DHT22;8934;51.194;17.150;2022-07-23T07:30:43;27.00;99.90
17632;DHT22;8934;51.194;17.150;2022-07-23T07:33:31;27.20;99.90
17632;DHT22;8934;51.194;17.150;2022-07-23T07:36:20;27.20;99.90
17632;DHT22;8934;51.194;17.150;2022-07-23T07:39:08;27.30;99.90
17632;DHT22;8934;51.194;17.150;2022-07-23T07:41:57;27.10;99.90
17632;DHT22;8934;51.194;17.150;2022-07-23T07:44:45;27.00;99.90
17632;DHT22;8934;51.194;17.150;2022-07-23T07:47:35;26.90;99.90
17632;DHT22;8934;51.194;17.150;2022-07-23T07:50:23;27.00;99.90
17632;DHT22;8934;51.194;17.150;2022-07-23T07:53:13;27.10;99.90
17632;DHT22;8934;51.194;17.150;2022-07-23T07:56:01;27.10;99.90
17632;DHT22;8934;51.194;17.150;2022-07-23T07:58:48;27.20;99.90
17632;DHT22;8934;51.194;17.150;2022-07-23T08:01:37;27.20;99.90
17632;DHT22;8934;51.194;17.150;2022-07-23T08:04:25;27.30;99.90
17632;DHT22;8934;51.194;17.150;2022-07-23T08:07:12;27.50;99.90
17632;DHT22;8934;51.194;17.150;2022-07-23T08:10:01;27.70;99.90
17632;DHT22;8934;51.194;17.150;2022-07-23T08:12:51;27.80;99.90
17632;DHT22;8934;51.194;17.150;2022-07-23T08:15:40;27.80;99.90
17632;DHT22;8934;51.194;17.150;2022-07-23T08:18:29;27.90;99.90
17632;DHT22;8934;51.194;17.150;2022-07-23T08:21:17;27.90;99.90
17632;DHT22;8934;51.194;17.150;2022-07-23T08:24:05;28.00;99.90
17632;DHT22;8934;51.194;17.150;2022-07-23T08:26:54;28.40;99.90
17632;DHT22;8934;51.194;17.150;2022-07-23T08:29:42;28.60;99.90
17632;DHT22;8934;51.194;17.150;2022-07-23T08:32:30;28.70;99.90
17632;DHT22;8934;51.194;17.150;2022-07-23T08:35:33;28.80;99.90
17632;DHT22;8934;51.194;17.150;2022-07-23T08:38:21;28.90;99.90
17632;DHT22;8934;51.194;17.150;2022-07-23T08:41:10;29.10;99.90
17632;DHT22;8934;51.194;17.150;2022-07-23T08:43:59;29.30;99.90
17632;DHT22;8934;51.194;17.150;2022-07-23T08:46:51;29.70;99.90
17632;DHT22;8934;51.194;17.150;2022-07-23T08:49:39;29.80;99.90
17632;DHT22;8934;51.194;17.150;2022-07-23T08:52:30;30.00;99.90
17632;DHT22;8934;51.194;17.150;2022-07-23T08:55:19;30.00;99.90
17632;DHT22;8934;51.194;17.150;2022-07-23T08:58:08;30.20;99.90
17632;DHT22;8934;51.194;17.150;2022-07-23T09:00:58;30.30;99.90
17632;DHT22;8934;51.194;17.150;2022-07-23T09:03:46;30.50;99.90
17632;DHT22;8934;51.194;17.150;2022-07-23T09:06:34;30.50;99.90
17632;DHT22;8934;51.194;17.150;2022-07-23T09:09:22;30.50;99.90
17632;DHT22;8934;51.194;17.150;2022-07-23T09:12:16;30.40;99.90
17632;DHT22;8934;51.194;17.150;2022-07-23T09:15:06;30.40;99.90
17632;DHT22;8934;51.194;17.150;2022-07-23T09:17:56;30.40;99.90
17632;DHT22;8934;51.194;17.150;2022-07-23T09:20:44;30.50;99.90
17632;DHT22;8934;51.194;17.150;2022-07-23T09:23:37;30.70;99.90
17632;DHT22;8934;51.194;17.150;2022-07-23T09:26:29;30.90;99.90
17632;DHT22;8934;51.194;17.150;2022-07-23T09:29:19;30.90;99.90
17632;DHT22;8934;51.194;17.150;2022-07-23T09:32:13;30.80;99.90
17632;DHT22;8934;51.194;17.150;2022-07-23T09:35:03;30.50;99.90
17632;DHT22;8934;51.194;17.150;2022-07-23T09:38:01;30.30;99.90
17632;DHT22;8934;51.194;17.150;2022-07-23T09:41:07;30.20;99.90
17632;DHT22;8934;51.194;17.150;2022-07-23T09:43:55;30.10;99.90
17632;DHT22;8934;51.194;17.150;2022-07-23T09:46:46;30.00;99.90
17632;DHT22;8934;51.194;17.150;2022-07-23T09:49:34;30.10;99.90
17632;DHT22;8934;51.194;17.150;2022-07-23T09:52:28;30.20;99.90
17632;DHT22;8934;51.194;17.150;2022-07-23T09:55:31;29.70;99.90
17632;DHT22;8934;51.194;17.150;2022-07-23T09:58:22;29.20;99.90
17632;DHT22;8934;51.194;17.150;2022-07-23T10:01:13;28.90;99.90
17632;DHT22;8934;51.194;17.150;2022-07-23T10:04:02;28.20;99.90
17632;DHT22;8934;51.194;17.150;2022-07-23T10:07:11;28.00;99.90
17632;DHT22;8934;51.194;17.150;2022-07-23T10:10:21;27.80;99.90
17632;DHT22;8934;51.194;17.150;2022-07-23T10:13:46;27.50;99.90
17632;DHT22;8934;51.194;17.150;2022-07-23T10:17:00;27.40;99.90
17632;DHT22;8934;51.194;17.150;2022-07-23T10:19:49;27.00;99.90
17632;DHT22;8934;51.194;17.150;2022-07-23T10:22:42;26.60;99.90
17632;DHT22;8934;51.194;17.150;2022-07-23T10:25:39;26.10;99.90
17632;DHT22;8934;51.194;17.150;2022-07-23T10:28:49;25.40;99.90
17632;DHT22;8934;51.194;17.150;2022-07-23T10:31:50;25.10;99.90
17632;DHT22;8934;51.194;17.150;2022-07-23T10:34:52;24.80;99.90
17632;DHT22;8934;51.194;17.150;2022-07-23T10:37:47;24.40;99.90
17632;DHT22;8934;51.194;17.150;2022-07-23T10:40:53;23.90;99.90
17632;DHT22;8934;51.194;17.150;2022-07-23T10:43:42;23.60;99.90
17632;DHT22;8934;51.194;17.150;2022-07-23T10:46:30;23.30;99.90
17632;DHT22;8934;51.194;17.150;2022-07-23T10:49:24;23.30;99.90
17632;DHT22;8934;51.194;17.150;2022-07-23T10:52:19;23.20;99.90
17632;DHT22;8934;51.194;17.150;2022-07-23T10:55:40;23.20;99.90
17632;DHT22;8934;51.194;17.150;2022-07-23T10:58:47;23.10;99.90
17632;DHT22;8934;51.194;17.150;2022-07-23T11:01:38;23.00;99.90
17632;DHT22;8934;51.194;17.150;2022-07-23T11:04:51;22.80;99.90
17632;DHT22;8934;51.194;17.150;2022-07-23T11:11:11;22.60;99.90
17632;DHT22;8934;51.194;17.150;2022-07-23T11:14:00;22.50;99.90
17632;DHT22;8934;51.194;17.150;2022-07-23T11:16:55;22.40;99.90
17632;DHT22;8934;51.194;17.150;2022-07-23T11:20:17;22.40;99.90
17632;DHT22;8934;51.194;17.150;2022-07-23T11:23:06;22.40;99.90
17632;DHT22;8934;51.194;17.150;2022-07-23T11:25:54;22.40;99.90
17632;DHT22;8934;51.194;17.150;2022-07-23T11:28:43;22.50;99.90
17632;DHT22;8934;51.194;17.150;2022-07-23T11:31:31;22.60;99.90
17632;DHT22;8934;51.194;17.150;2022-07-23T11:34:29;22.70;99.90
17632;DHT22;8934;51.194;17.150;2022-07-23T11:37:34;22.80;99.90
17632;DHT22;8934;51.194;17.150;2022-07-23T11:40:23;22.80;99.90
17632;DHT22;8934;51.194;17.150;2022-07-23T11:43:11;22.70;99.90
17632;DHT22;8934;51.194;17.150;2022-07-23T11:46:01;22.70;99.90
17632;DHT22;8934;51.194;17.150;2022-07-23T11:49:01;22.70;99.90
17632;DHT22;8934;51.194;17.150;2022-07-23T11:52:03;22.60;99.90
17632;DHT22;8934;51.194;17.150;2022-07-23T11:54:53;22.60;99.90
17632;DHT22;8934;51.194;17.150;2022-07-23T11:57:41;22.70;99.90
17632;DHT22;8934;51.194;17.150;2022-07-23T12:00:31;22.60;99.90
17632;DHT22;8934;51.194;17.150;2022-07-23T12:03:27;22.50;99.90
17632;DHT22;8934;51.194;17.150;2022-07-23T12:06:15;22.70;99.90
17632;DHT22;8934;51.194;17.150;2022-07-23T12:09:03;22.70;99.90
17632;DHT22;8934;51.194;17.150;2022-07-23T12:11:57;22.80;99.90
17632;DHT22;8934;51.194;17.150;2022-07-23T12:14:50;23.00;99.90
17632;DHT22;8934;51.194;17.150;2022-07-23T12:17:40;23.30;99.90
17632;DHT22;8934;51.194;17.150;2022-07-23T12:20:35;23.50;99.90
17632;DHT22;8934;51.194;17.150;2022-07-23T12:23:25;23.70;99.90
17632;DHT22;8934;51.194;17.150;2022-07-23T12:26:14;24.10;99.90
17632;DHT22;8934;51.194;17.150;2022-07-23T12:29:02;24.40;99.90
17632;DHT22;8934;51.194;17.150;2022-07-23T12:31:50;24.80;99.90
17632;DHT22;8934;51.194;17.150;2022-07-23T12:34:38;25.50;99.90
17632;DHT22;8934;51.194;17.150;2022-07-23T12:37:29;26.20;99.90
17632;DHT22;8934;51.194;17.150;2022-07-23T12:40:20;26.80;99.90
17632;DHT22;8934;51.194;17.150;2022-07-23T12:43:09;27.30;99.90
17632;DHT22;8934;51.194;17.150;2022-07-23T12:46:03;27.70;99.90
17632;DHT22;8934;51.194;17.150;2022-07-23T12:48:52;28.30;99.90
17632;DHT22;8934;51.194;17.150;2022-07-23T12:51:41;28.90;99.90
17632;DHT22;8934;51.194;17.150;2022-07-23T12:54:34;29.40;99.90
17632;DHT22;8934;51.194;17.150;2022-07-23T12:57:45;29.70;99.90
17632;DHT22;8934;51.194;17.150;2022-07-23T13:00:52;30.20;99.90
17632;DHT22;8934;51.194;17.150;2022-07-23T13:03:41;30.60;99.90
17632;DHT22;8934;51.194;17.150;2022-07-23T13:06:31;30.80;99.90
17632;DHT22;8934;51.194;17.150;2022-07-23T13:09:21;31.00;99.90
17632;DHT22;8934;51.194;17.150;2022-07-23T13:12:12;31.10;99.90
17632;DHT22;8934;51.194;17.150;2022-07-23T13:15:00;31.40;99.90
17632;DHT22;8934;51.194;17.150;2022-07-23T13:17:48;31.90;99.90
17632;DHT22;8934;51.194;17.150;2022-07-23T13:20:37;32.40;99.90
17632;DHT22;8934;51.194;17.150;2022-07-23T13:23:26;32.50;99.90
17632;DHT22;8934;51.194;17.150;2022-07-23T13:26:16;32.40;99.90
17632;DHT22;8934;51.194;17.150;2022-07-23T13:29:06;32.20;99.90
17632;DHT22;8934;51.194;17.150;2022-07-23T13:31:56;32.20;99.90
17632;DHT22;8934;51.194;17.150;2022-07-23T13:34:44;32.20;99.90
17632;DHT22;8934;51.194;17.150;2022-07-23T13:37:32;31.90;99.90
17632;DHT22;8934;51.194;17.150;2022-07-23T13:40:20;31.70;99.90
17632;DHT22;8934;51.194;17.150;2022-07-23T13:43:12;31.10;99.90
17632;DHT22;8934;51.194;17.150;2022-07-23T13:46:02;31.00;99.90
17632;DHT22;8934;51.194;17.150;2022-07-23T13:48:51;31.00;99.90
17632;DHT22;8934;51.194;17.150;2022-07-23T13:51:40;31.20;99.90
17632;DHT22;8934;51.194;17.150;2022-07-23T13:54:28;31.50;99.90
17632;DHT22;8934;51.194;17.150;2022-07-23T13:57:16;31.20;99.90
17632;DHT22;8934;51.194;17.150;2022-07-23T14:00:07;31.30;99.90
17632;DHT22;8934;51.194;17.150;2022-07-23T14:03:18;31.50;99.90
17632;DHT22;8934;51.194;17.150;2022-07-23T14:06:07;31.90;99.90
17632;DHT22;8934;51.194;17.150;2022-07-23T14:09:02;32.00;99.90
17632;DHT22;8934;51.194;17.150;2022-07-23T14:11:53;31.90;99.90
17632;DHT22;8934;51.194;17.150;2022-07-23T14:14:41;31.90;99.90
17632;DHT22;8934;51.194;17.150;2022-07-23T14:17:30;31.90;99.90
17632;DHT22;8934;51.194;17.150;2022-07-23T14:20:22;31.60;99.90
17632;DHT22;8934;51.194;17.150;2022-07-23T14:23:10;31.30;99.90
17632;DHT22;8934;51.194;17.150;2022-07-23T14:25:59;31.10;99.90
17632;DHT22;8934;51.194;17.150;2022-07-23T14:28:50;30.80;99.90
17632;DHT22;8934;51.194;17.150;2022-07-23T14:31:38;30.50;99.90
17632;DHT22;8934;51.194;17.150;2022-07-23T14:34:26;30.40;99.90
17632;DHT22;8934;51.194;17.150;2022-07-23T14:37:16;30.20;99.90
17632;DHT22;8934;51.194;17.150;2022-07-23T14:40:05;29.80;99.90
17632;DHT22;8934;51.194;17.150;2022-07-23T14:42:54;29.40;99.90
17632;DHT22;8934;51.194;17.150;2022-07-23T14:45:42;29.20;99.90
17632;DHT22;8934;51.194;17.150;2022-07-23T14:48:34;29.00;99.90
17632;DHT22;8934;51.194;17.150;2022-07-23T14:51:22;28.70;99.90
17632;DHT22;8934;51.194;17.150;2022-07-23T14:54:13;28.50;99.90
17632;DHT22;8934;51.194;17.150;2022-07-23T14:57:03;28.30;99.90
17632;DHT22;8934;51.194;17.150;2022-07-23T14:59:56;28.20;99.90
17632;DHT22;8934;51.194;17.150;2022-07-23T15:02:44;28.10;99.90
17632;DHT22;8934;51.194;17.150;2022-07-23T15:05:40;28.10;99.90
17632;DHT22;8934;51.194;17.150;2022-07-23T15:08:28;27.90;99.90
17632;DHT22;8934;51.194;17.150;2022-07-23T15:11:18;27.50;99.90
17632;DHT22;8934;51.194;17.150;2022-07-23T15:14:06;27.30;99.90
17632;DHT22;8934;51.194;17.150;2022-07-23T15:16:55;27.40;99.90
17632;DHT22;8934;51.194;17.150;2022-07-23T15:19:43;27.90;99.90
17632;DHT22;8934;51.194;17.150;2022-07-23T15:22:31;28.40;99.90
17632;DHT22;8934;51.194;17.150;2022-07-23T15:25:19;28.60;99.90
17632;DHT22;8934;51.194;17.150;2022-07-23T15:28:09;28.30;99.90
17632;DHT22;8934;51.194;17.150;2022-07-23T15:30:57;28.30;99.90
17632;DHT22;8934;51.194;17.150;2022-07-23T15:33:45;28.00;99.90
17632;DHT22;8934;51.194;17.150;2022-07-23T15:36:33;27.80;99.90
17632;DHT22;8934;51.194;17.150;2022-07-23T15:39:21;27.80;99.90
17632;DHT22;8934;51.194;17.150;2022-07-23T15:42:09;27.90;99.90
17632;DHT22;8934;51.194;17.150;2022-07-23T15:45:02;27.50;99.90
17632;DHT22;8934;51.194;17.150;2022-07-23T15:47:50;27.30;99.90
17632;DHT22;8934;51.194;17.150;2022-07-23T15:50:39;27.00;99.90
17632;DHT22;8934;51.194;17.150;2022-07-23T15:53:31;26.80;99.90
17632;DHT22;8934;51.194;17.150;2022-07-23T15:56:22;26.70;99.90
17632;DHT22;8934;51.194;17.150;2022-07-23T15:59:10;26.80;99.90
17632;DHT22;8934;51.194;17.150;2022-07-23T16:02:03;26.70;99.90
17632;DHT22;8934;51.194;17.150;2022-07-23T16:04:51;26.60;99.90
17632;DHT22;8934;51.194;17.150;2022-07-23T16:07:40;26.50;99.90
17632;DHT22;8934;51.194;17.150;2022-07-23T16:10:28;26.40;99.90
17632;DHT22;8934;51.194;17.150;2022-07-23T16:13:16;26.40;99.90
17632;DHT22;8934;51.194;17.150;2022-07-23T16:16:05;26.30;99.90
17632;DHT22;8934;51.194;17.150;2022-07-23T16:18:56;26.10;99.90
17632;DHT22;8934;51.194;17.150;2022-07-23T16:21:45;25.80;99.90
17632;DHT22;8934;51.194;17.150;2022-07-23T16:24:36;25.70;99.90
17632;DHT22;8934;51.194;17.150;2022-07-23T16:27:23;25.50;99.90
17632;DHT22;8934;51.194;17.150;2022-07-23T16:30:13;25.40;99.90
17632;DHT22;8934;51.194;17.150;2022-07-23T16:33:01;25.40;99.90
17632;DHT22;8934;51.194;17.150;2022-07-23T16:35:53;25.30;99.90
17632;DHT22;8934;51.194;17.150;2022-07-23T16:38:41;25.40;99.90
17632;DHT22;8934;51.194;17.150;2022-07-23T16:41:29;25.60;99.90
17632;DHT22;8934;51.194;17.150;2022-07-23T16:44:17;25.80;99.90
17632;DHT22;8934;51.194;17.150;2022-07-23T16:47:07;26.20;99.90
17632;DHT22;8934;51.194;17.150;2022-07-23T16:49:55;26.40;99.90
17632;DHT22;8934;51.194;17.150;2022-07-23T16:52:44;26.80;99.90
17632;DHT22;8934;51.194;17.150;2022-07-23T16:55:32;27.00;99.90
17632;DHT22;8934;51.194;17.150;2022-07-23T16:58:20;26.90;99.90
17632;DHT22;8934;51.194;17.150;2022-07-23T17:01:08;26.60;99.90
17632;DHT22;8934;51.194;17.150;2022-07-23T17:03:56;26.20;99.90
17632;DHT22;8934;51.194;17.150;2022-07-23T17:06:45;25.80;99.90
17632;DHT22;8934;51.194;17.150;2022-07-23T17:09:34;25.70;99.90
17632;DHT22;8934;51.194;17.150;2022-07-23T17:12:23;25.70;99.90
17632;DHT22;8934;51.194;17.150;2022-07-23T17:15:11;25.80;99.90
17632;DHT22;8934;51.194;17.150;2022-07-23T17:18:00;25.80;99.90
17632;DHT22;8934;51.194;17.150;2022-07-23T17:20:48;25.80;99.90
17632;DHT22;8934;51.194;17.150;2022-07-23T17:23:36;25.60;99.90
17632;DHT22;8934;51.194;17.150;2022-07-23T17:26:25;25.50;99.90
17632;DHT22;8934;51.194;17.150;2022-07-23T17:29:12;25.50;99.90
17632;DHT22;8934;51.194;17.150;2022-07-23T17:32:00;25.70;99.90
17632;DHT22;8934;51.194;17.150;2022-07-23T17:34:49;25.80;99.90
17632;DHT22;8934;51.194;17.150;2022-07-23T17:37:38;25.80;99.90
17632;DHT22;8934;51.194;17.150;2022-07-23T17:40:27;25.50;99.90
17632;DHT22;8934;51.194;17.150;2022-07-23T17:43:17;25.10;99.90
17632;DHT22;8934;51.194;17.150;2022-07-23T17:46:05;24.90;99.90
17632;DHT22;8934;51.194;17.150;2022-07-23T17:48:53;24.60;99.90
17632;DHT22;8934;51.194;17.150;2022-07-23T17:51:42;24.50;99.90
17632;DHT22;8934;51.194;17.150;2022-07-23T17:54:33;24.20;99.90
17632;DHT22;8934;51.194;17.150;2022-07-23T17:57:21;24.10;99.90
17632;DHT22;8934;51.194;17.150;2022-07-23T18:00:13;24.10;99.90